createdAt,value
2024-04-24T00:02:11.313Z,99834.94
2024-04-24T00:04:38.403Z,99827.44
2024-04-24T00:07:05.603Z,99822.84
2024-04-24T00:09:32.767Z,99837.09
2024-04-24T00:11:59.951Z,99815.66
2024-04-24T00:14:27.143Z,99784.00
2024-04-24T00:16:54.758Z,99795.78
2024-04-24T00:19:21.854Z,99811.53
2024-04-24T00:21:49.032Z,99806.66
2024-04-24T00:24:16.147Z,99794.16
2024-04-24T00:26:43.535Z,99789.56
2024-04-24T00:29:10.621Z,99816.91
2024-04-24T00:31:37.718Z,99827.69
2024-04-24T00:34:04.746Z,99826.34
2024-04-24T00:36:32.029Z,99827.31
2024-04-24T00:38:59.138Z,99809.53
2024-04-24T00:41:26.347Z,99802.13
2024-04-24T00:43:53.465Z,99816.84
2024-04-24T00:46:21.618Z,99909.63
2024-04-24T00:48:48.986Z,99815.38
2024-04-24T00:51:17.134Z,99833.56
2024-04-24T00:53:44.231Z,99819.84
2024-04-24T00:56:11.600Z,99842.78
2024-04-24T00:58:39.401Z,99800.38
2024-04-24T01:01:07.554Z,99848.53
2024-04-24T01:03:34.663Z,99843.38
2024-04-24T01:06:01.854Z,99827.41
2024-04-24T01:08:29.157Z,99834.97
2024-04-24T01:11:00.133Z,99827.94
2024-04-24T01:13:28.028Z,99882.19
2024-04-24T01:16:00.806Z,99827.88
2024-04-24T01:18:31.530Z,99833.03
2024-04-24T01:21:02.809Z,99833.03
2024-04-24T01:23:36.026Z,99835.38
2024-04-24T01:26:17.440Z,99812.91
2024-04-24T01:28:44.610Z,99815.38
2024-04-24T01:31:11.674Z,99748.56
2024-04-24T01:33:38.920Z,99835.38
2024-04-24T01:36:06.356Z,99803.63
2024-04-24T01:38:33.474Z,99821.41
2024-04-24T01:41:00.656Z,100272.41
2024-04-24T01:43:27.871Z,99831.00
2024-04-24T01:45:54.922Z,99820.81
2024-04-24T01:48:22.160Z,99827.75
2024-04-24T01:50:49.249Z,99825.78
2024-04-24T01:53:16.614Z,99833.72
2024-04-24T01:55:43.797Z,99852.34
2024-04-24T01:58:10.906Z,99838.63
2024-04-24T02:00:38.024Z,99747.13
2024-04-24T02:03:05.594Z,99849.44
2024-04-24T02:05:32.713Z,99840.88
2024-04-24T02:07:59.898Z,99851.59
2024-04-24T02:10:26.992Z,99862.09
2024-04-24T02:12:54.201Z,99844.16
2024-04-24T02:15:21.343Z,99937.13
2024-04-24T02:17:48.596Z,99863.97
2024-04-24T02:20:15.730Z,99870.84
2024-04-24T02:22:43.012Z,99840.44
2024-04-24T02:25:10.846Z,99840.25
2024-04-24T02:27:37.962Z,99941.09
2024-04-24T02:30:05.603Z,99867.81
2024-04-24T02:32:32.884Z,99855.38
2024-04-24T02:35:00.105Z,99860.19
2024-04-24T02:37:28.370Z,99851.56
2024-04-24T02:39:55.456Z,99863.38
2024-04-24T02:42:22.554Z,99966.59
2024-04-24T02:44:49.606Z,99908.66
2024-04-24T02:47:16.941Z,99882.19
2024-04-24T02:49:44.238Z,99875.28
2024-04-24T02:52:11.335Z,99785.03
2024-04-24T02:54:38.427Z,99871.91
2024-04-24T02:57:05.674Z,99888.38
2024-04-24T02:59:32.752Z,99848.19
2024-04-24T03:01:59.994Z,99854.50
2024-04-24T03:04:27.020Z,99873.56
2024-04-24T03:06:54.186Z,99830.22
2024-04-24T03:09:21.309Z,99889.13
2024-04-24T03:11:48.439Z,99837.66
2024-04-24T03:14:19.259Z,99852.63
2024-04-24T03:16:46.577Z,99868.03
2024-04-24T03:19:13.692Z,99862.81
2024-04-24T03:21:40.836Z,99747.72
2024-04-24T03:24:08.533Z,99857.94
2024-04-24T03:26:35.729Z,99758.69
2024-04-24T03:29:03.219Z,99824.28
2024-04-24T03:31:33.851Z,99849.31
2024-04-24T03:34:01.258Z,99839.75
2024-04-24T03:36:28.259Z,99950.47
2024-04-24T03:38:57.286Z,99942.44
2024-04-24T03:41:24.470Z,99525.38
2024-04-24T03:43:51.596Z,99828.34
2024-04-24T03:46:18.672Z,99846.19
2024-04-24T03:48:45.813Z,99846.19
2024-04-24T03:51:13.206Z,99838.13
2024-04-24T03:53:40.339Z,99836.28
2024-04-24T03:56:08.432Z,99828.19
2024-04-24T03:58:35.767Z,99926.44
2024-04-24T04:01:02.973Z,99817.63
2024-04-24T04:03:30.026Z,99821.63
2024-04-24T04:05:57.077Z,99819.06
2024-04-24T04:08:24.565Z,99826.88
2024-04-24T04:10:52.074Z,99599.78
2024-04-24T04:13:19.175Z,99858.28
2024-04-24T04:15:46.221Z,99820.72
2024-04-24T04:18:13.415Z,99845.59
2024-04-24T04:20:40.592Z,99928.22
2024-04-24T04:23:07.696Z,99845.56
2024-04-24T04:25:34.760Z,99845.03
2024-04-24T04:28:01.783Z,99837.53
2024-04-24T04:30:28.983Z,99537.72
2024-04-24T04:32:56.041Z,99824.91
2024-04-24T04:35:23.241Z,100278.94
2024-04-24T04:37:50.420Z,99977.81
2024-04-24T04:40:17.476Z,99846.06
2024-04-24T04:42:44.527Z,99846.34
2024-04-24T04:45:11.649Z,100185.06
2024-04-24T04:47:38.847Z,99842.16
2024-04-24T04:50:06.612Z,99832.47
2024-04-24T04:52:33.703Z,99817.41
2024-04-24T04:55:00.770Z,99822.94
2024-04-24T04:57:27.867Z,99838.19
2024-04-24T04:59:54.927Z,99836.72
2024-04-24T05:02:22.167Z,99823.25
2024-04-24T05:04:49.337Z,99827.63
2024-04-24T05:07:16.478Z,99720.28
2024-04-24T05:09:43.574Z,99814.38
2024-04-24T05:12:10.662Z,99841.75
2024-04-24T05:14:37.763Z,99837.63
2024-04-24T05:17:04.913Z,99753.28
2024-04-24T05:19:32.002Z,99828.16
2024-04-24T05:21:59.100Z,99839.59
2024-04-24T05:24:26.134Z,99807.19
2024-04-24T05:26:54.529Z,99817.97
2024-04-24T05:29:21.754Z,99807.41
2024-04-24T05:31:48.872Z,99810.53
2024-04-24T05:34:16.048Z,99824.59
2024-04-24T05:36:43.380Z,99815.13
2024-04-24T05:39:10.479Z,99803.47
2024-04-24T05:41:38.856Z,99808.78
2024-04-24T05:44:05.939Z,99797.78
2024-04-24T05:46:33.034Z,99831.63
2024-04-24T05:49:00.134Z,99824.59
2024-04-24T05:51:27.290Z,99809.88
2024-04-24T05:53:54.418Z,99816.63
2024-04-24T05:56:21.523Z,99794.19
2024-04-24T05:58:48.686Z,99953.81
2024-04-24T06:01:15.887Z,99790.63
2024-04-24T06:03:42.983Z,99822.66
2024-04-24T06:06:12.338Z,99805.44
2024-04-24T06:08:39.370Z,99860.88
2024-04-24T06:11:06.518Z,99837.16
2024-04-24T06:13:33.785Z,99814.47
2024-04-24T06:16:00.862Z,99836.91
2024-04-24T06:18:27.936Z,99830.84
2024-04-24T06:20:55.053Z,99831.81
2024-04-24T06:23:22.277Z,99828.56
2024-04-24T06:25:49.508Z,99828.19
2024-04-24T06:28:16.636Z,99838.44
2024-04-24T06:30:45.548Z,99841.81
2024-04-24T06:33:12.770Z,99925.16
2024-04-24T06:35:40.065Z,99839.94
2024-04-24T06:38:09.290Z,99736.13
2024-04-24T06:40:36.454Z,99822.84
2024-04-24T06:43:03.755Z,99920.63
2024-04-24T06:45:30.912Z,99841.66
2024-04-24T06:47:58.067Z,99835.88
2024-04-24T06:50:25.213Z,99825.88
2024-04-24T06:52:53.422Z,99835.34
2024-04-24T06:55:20.494Z,99822.72
2024-04-24T06:57:47.579Z,99834.47
2024-04-24T07:00:14.893Z,99819.22
2024-04-24T07:02:42.084Z,99808.00
2024-04-24T07:05:09.259Z,99829.31
2024-04-24T07:07:36.439Z,99807.84
2024-04-24T07:10:03.572Z,99788.06
2024-04-24T07:12:30.663Z,99829.78
2024-04-24T07:14:57.682Z,99815.06
2024-04-24T07:17:24.952Z,99800.47
2024-04-24T07:19:52.167Z,99807.72
2024-04-24T07:22:20.899Z,99781.88
2024-04-24T07:24:48.427Z,99817.00
2024-04-24T07:27:18.777Z,99827.84
2024-04-24T07:29:47.699Z,99795.09
2024-04-24T07:32:17.667Z,99802.22
2024-04-24T07:34:44.685Z,99612.59
2024-04-24T07:37:13.124Z,99796.75
2024-04-24T07:39:40.773Z,99787.34
2024-04-24T07:42:07.829Z,99979.41
2024-04-24T07:44:35.028Z,99783.91
2024-04-24T07:47:04.276Z,99762.78
2024-04-24T07:49:31.745Z,99791.59
2024-04-24T07:51:58.768Z,99785.69
2024-04-24T07:54:25.833Z,100232.78
2024-04-24T07:56:53.281Z,99778.47
2024-04-24T07:59:20.330Z,99771.53
2024-04-24T08:01:47.750Z,100111.53
2024-04-24T08:04:15.083Z,99797.31
2024-04-24T08:06:42.633Z,99902.38
2024-04-24T08:09:13.638Z,99850.53
2024-04-24T08:11:40.835Z,99590.09
2024-04-24T08:14:08.077Z,99850.22
2024-04-24T08:16:36.727Z,99766.09
2024-04-24T08:19:05.132Z,99754.34
2024-04-24T08:21:32.223Z,99666.69
2024-04-24T08:23:59.987Z,99769.06
2024-04-24T08:26:28.907Z,99847.97
2024-04-24T08:28:56.123Z,99759.06
2024-04-24T08:31:24.571Z,99841.34
2024-04-24T08:33:51.664Z,99766.59
2024-04-24T08:36:20.305Z,99756.25
2024-04-24T08:38:47.426Z,99760.97
2024-04-24T08:41:14.820Z,99734.69
2024-04-24T08:43:45.033Z,99743.81
2024-04-24T08:46:13.726Z,99647.72
2024-04-24T08:48:45.986Z,99748.06
2024-04-24T08:51:17.712Z,99738.81
2024-04-24T08:54:12.072Z,99727.00
2024-04-24T08:56:54.295Z,99731.97
2024-04-24T08:59:24.450Z,99722.09
2024-04-24T09:02:01.954Z,99712.56
2024-04-24T09:04:30.339Z,99791.09
2024-04-24T09:07:00.310Z,99736.63
2024-04-24T09:09:28.936Z,99803.59
2024-04-24T09:12:01.054Z,99691.38
2024-04-24T09:14:30.646Z,99800.91
2024-04-24T09:16:58.998Z,99715.91
2024-04-24T09:19:27.631Z,99721.34
2024-04-24T09:21:54.773Z,99705.56
2024-04-24T09:24:22.096Z,99715.09
2024-04-24T09:26:49.951Z,99718.75
2024-04-24T09:29:17.801Z,99697.84
2024-04-24T09:31:46.603Z,99717.63
2024-04-24T09:34:16.076Z,99707.53
2024-04-24T09:36:44.897Z,99658.25
2024-04-24T09:39:17.254Z,99695.50
2024-04-24T09:41:47.725Z,99708.34
2024-04-24T09:44:16.636Z,99653.44
2024-04-24T09:46:51.779Z,99686.69
2024-04-24T09:49:21.060Z,99690.81
2024-04-24T09:51:50.522Z,99668.75
2024-04-24T09:54:19.458Z,99747.19
2024-04-24T09:56:46.719Z,99669.63
2024-04-24T09:59:14.811Z,99671.47
2024-04-24T10:01:52.472Z,99675.19
2024-04-24T10:04:20.739Z,99750.56
2024-04-24T10:06:51.342Z,99664.78
2024-04-24T10:09:23.270Z,99402.66
2024-04-24T10:11:56.768Z,99556.25
2024-04-24T10:14:26.601Z,99640.19
2024-04-24T10:17:14.476Z,99647.91
2024-04-24T10:19:43.983Z,99660.28
2024-04-24T10:22:11.609Z,99632.50
2024-04-24T10:24:39.768Z,99616.88
2024-04-24T10:27:07.675Z,99613.28
2024-04-24T10:29:39.282Z,99727.47
2024-04-24T10:32:09.374Z,99666.03
2024-04-24T10:34:39.340Z,99619.50
2024-04-24T10:37:08.910Z,99652.56
2024-04-24T10:39:45.806Z,99617.69
2024-04-24T10:42:16.235Z,99617.56
2024-04-24T10:45:02.006Z,99622.66
2024-04-24T10:47:29.287Z,99368.50
2024-04-24T10:49:58.518Z,99620.47
2024-04-24T10:52:26.378Z,99601.97
2024-04-24T10:54:54.805Z,99591.56
2024-04-24T10:57:32.099Z,99611.00
2024-04-24T11:00:12.580Z,99686.31
2024-04-24T11:02:40.927Z,99604.69
2024-04-24T11:05:08.176Z,99577.63
2024-04-24T11:07:38.827Z,99593.00
2024-04-24T11:10:08.394Z,99563.59
2024-04-24T11:12:40.032Z,99497.53
2024-04-24T11:15:18.620Z,99579.69
2024-04-24T11:17:49.562Z,99552.63
2024-04-24T11:20:18.970Z,99575.63
2024-04-24T11:22:46.281Z,99578.59
2024-04-24T11:25:16.982Z,99566.16
2024-04-24T11:27:47.184Z,99565.34
2024-04-24T11:30:17.669Z,99657.69
2024-04-24T11:32:49.181Z,99596.84
2024-04-24T11:35:29.861Z,99579.50
2024-04-24T11:37:57.184Z,99572.09
2024-04-24T11:40:25.899Z,99556.72
2024-04-24T11:42:55.397Z,99585.13
2024-04-24T11:45:26.145Z,99567.09
2024-04-24T11:47:53.700Z,99568.19
2024-04-24T11:50:21.375Z,99872.50
2024-04-24T11:52:49.308Z,99558.09
2024-04-24T11:55:17.645Z,99549.03
2024-04-24T11:57:46.110Z,99548.97
2024-04-24T12:00:33.212Z,99549.22
2024-04-24T12:03:04.478Z,99545.44
2024-04-24T12:05:32.873Z,99538.34
2024-04-24T12:08:00.217Z,99518.88
2024-04-24T12:10:27.494Z,99524.97
2024-04-24T12:12:56.828Z,99549.03
2024-04-24T12:15:24.503Z,99551.88
2024-04-24T12:17:51.675Z,99539.91
2024-04-24T12:20:18.882Z,99456.16
2024-04-24T12:22:46.024Z,99544.53
2024-04-24T12:25:13.220Z,99552.59
2024-04-24T12:27:41.434Z,99538.44
2024-04-24T12:30:11.405Z,99541.22
2024-04-24T12:32:39.916Z,99546.75
2024-04-24T12:35:09.827Z,99532.59
2024-04-24T12:37:41.265Z,99533.53
2024-04-24T12:40:09.285Z,99511.22
2024-04-24T12:42:38.748Z,99537.72
2024-04-24T12:45:08.372Z,99542.72
2024-04-24T12:47:36.919Z,99538.13
2024-04-24T12:50:04.400Z,99518.13
2024-04-24T12:52:36.089Z,99558.13
2024-04-24T12:55:03.356Z,99538.66
2024-04-24T12:57:30.459Z,99531.06
2024-04-24T12:59:58.865Z,99538.50
2024-04-24T13:02:26.731Z,99535.25
2024-04-24T13:04:54.027Z,99526.59
2024-04-24T13:07:22.387Z,99517.09
2024-04-24T13:09:50.931Z,99530.16
2024-04-24T13:12:21.979Z,99551.88
2024-04-24T13:14:50.879Z,99561.69
2024-04-24T13:17:20.844Z,99551.72
2024-04-24T13:19:49.462Z,99590.53
2024-04-24T13:22:17.243Z,99542.94
2024-04-24T13:24:44.421Z,99533.44
2024-04-24T13:27:11.621Z,99537.91
2024-04-24T13:29:42.874Z,99530.91
2024-04-24T13:32:10.167Z,99539.25
2024-04-24T13:34:38.528Z,99523.78
2024-04-24T13:37:05.645Z,99536.72
2024-04-24T13:39:32.668Z,99542.06
2024-04-24T13:41:59.803Z,99545.03
2024-04-24T13:44:30.020Z,99528.53
2024-04-24T13:46:57.303Z,99555.00
2024-04-24T13:49:24.828Z,99545.19
2024-04-24T13:51:52.066Z,99535.97
2024-04-24T13:54:19.243Z,99546.22
2024-04-24T13:56:47.184Z,99535.09
2024-04-24T13:59:14.352Z,99538.78
2024-04-24T14:01:41.488Z,99726.78
2024-04-24T14:04:11.683Z,99310.22
2024-04-24T14:06:38.980Z,99516.06
2024-04-24T14:09:06.155Z,99521.81
2024-04-24T14:12:10.733Z,99511.75
2024-04-24T14:14:37.937Z,99522.81
2024-04-24T14:17:05.041Z,99529.44
2024-04-24T14:19:32.919Z,99485.09
2024-04-24T14:21:59.937Z,99488.19
2024-04-24T14:24:27.732Z,99844.13
2024-04-24T14:26:57.146Z,99523.78
2024-04-24T14:29:24.303Z,99502.31
2024-04-24T14:32:09.860Z,99485.41
2024-04-24T14:34:37.053Z,99488.50
2024-04-24T14:37:04.373Z,99503.84
2024-04-24T14:39:31.782Z,99464.41
2024-04-24T14:41:58.834Z,99491.91
2024-04-24T14:44:26.932Z,99474.31
2024-04-24T14:46:54.331Z,99492.63
2024-04-24T14:49:21.635Z,99475.66
2024-04-24T14:51:51.419Z,99463.28
2024-04-24T14:54:19.179Z,99355.91
2024-04-24T14:56:46.222Z,99431.06
2024-04-24T14:59:13.384Z,99327.84
2024-04-24T15:01:40.624Z,99397.09
2024-04-24T15:04:10.856Z,99382.00
2024-04-24T15:07:09.200Z,99313.41
2024-04-24T15:09:36.721Z,99441.88
2024-04-24T15:12:04.855Z,99440.03
2024-04-24T15:14:51.037Z,99440.63
2024-04-24T15:17:18.375Z,99441.75
2024-04-24T15:19:46.047Z,99449.25
2024-04-24T15:22:13.480Z,99353.22
2024-04-24T15:24:42.096Z,99482.00
2024-04-24T15:27:09.718Z,99467.34
2024-04-24T15:29:36.940Z,99444.03
2024-04-24T15:32:06.090Z,99461.53
2024-04-24T15:34:33.362Z,99440.25
2024-04-24T15:37:00.532Z,99448.88
2024-04-24T15:39:27.987Z,99412.66
2024-04-24T15:41:55.159Z,99432.31
2024-04-24T15:44:25.458Z,99413.78
2024-04-24T15:46:52.881Z,99418.75
2024-04-24T15:49:22.649Z,99459.06
2024-04-24T15:51:49.796Z,99408.00
2024-04-24T15:54:17.129Z,99394.22
2024-04-24T15:56:44.969Z,99422.88
2024-04-24T15:59:12.154Z,99216.00
2024-04-24T16:01:40.441Z,99434.50
2024-04-24T16:04:07.624Z,99406.81
2024-04-24T16:06:34.942Z,99433.13
2024-04-24T16:09:02.026Z,99429.25
2024-04-24T16:11:29.262Z,99425.44
2024-04-24T16:13:57.370Z,99430.25
2024-04-24T16:16:25.583Z,99443.47
2024-04-24T16:18:53.622Z,99413.56
2024-04-24T16:21:21.626Z,99414.84
2024-04-24T16:23:49.753Z,99399.53
2024-04-24T16:26:17.764Z,99328.66
2024-04-24T16:28:45.795Z,99429.75
2024-04-24T16:31:12.918Z,99422.81
2024-04-24T16:33:40.883Z,99518.88
2024-04-24T16:36:09.615Z,99424.41
2024-04-24T16:38:38.167Z,99399.72
2024-04-24T16:41:23.872Z,99397.47
2024-04-24T16:43:53.065Z,99406.53
2024-04-24T16:46:21.174Z,99402.16
2024-04-24T16:48:48.497Z,99394.69
2024-04-24T16:51:15.710Z,99394.06
2024-04-24T16:53:42.780Z,99405.16
2024-04-24T16:56:10.785Z,99402.38
2024-04-24T16:58:39.751Z,99400.13
2024-04-24T17:01:06.882Z,99348.00
2024-04-24T17:03:34.000Z,99297.28
2024-04-24T17:06:02.352Z,99391.19
2024-04-24T17:08:30.743Z,99391.63
2024-04-24T17:11:00.720Z,99392.47
2024-04-24T17:13:29.100Z,99376.41
2024-04-24T17:15:56.622Z,99377.88
2024-04-24T17:18:24.436Z,99381.28
2024-04-24T17:20:53.722Z,99384.91
2024-04-24T17:23:21.540Z,99373.66
2024-04-24T17:25:49.700Z,99368.41
2024-04-24T17:28:16.988Z,99343.88
2024-04-24T17:30:44.391Z,99373.84
2024-04-24T17:33:12.620Z,99374.97
2024-04-24T17:35:39.794Z,99371.06
2024-04-24T17:38:06.924Z,99378.50
2024-04-24T17:40:34.108Z,99360.00
2024-04-24T17:43:01.171Z,99342.94
2024-04-24T17:45:28.360Z,99336.03
2024-04-24T17:47:57.079Z,99329.13
2024-04-24T17:50:24.346Z,99343.09
2024-04-24T17:52:51.415Z,99355.50
2024-04-24T17:55:18.679Z,99326.56
2024-04-24T17:57:45.855Z,99359.84
2024-04-24T18:00:14.199Z,99348.34
2024-04-24T18:02:42.762Z,99350.28
2024-04-24T18:05:09.858Z,99325.41
2024-04-24T18:07:37.153Z,99358.59
2024-04-24T18:10:04.450Z,99327.00
2024-04-24T18:12:32.696Z,99325.50
2024-04-24T18:15:01.154Z,99339.41
2024-04-24T18:17:28.386Z,99334.59
2024-04-24T18:19:55.481Z,99343.88
2024-04-24T18:22:22.548Z,99213.91
2024-04-24T18:24:49.954Z,99315.31
2024-04-24T18:27:17.021Z,99321.34
2024-04-24T18:29:44.446Z,99323.09
2024-04-24T18:32:11.956Z,99136.78
2024-04-24T18:34:39.696Z,99347.31
2024-04-24T18:37:06.841Z,99328.28
2024-04-24T18:39:34.201Z,99316.78
2024-04-24T18:42:02.636Z,99305.41
2024-04-24T18:44:29.925Z,99322.81
2024-04-24T18:46:57.516Z,99250.13
2024-04-24T18:49:27.772Z,99320.59
2024-04-24T18:51:54.874Z,99311.34
2024-04-24T18:54:21.994Z,99312.72
2024-04-24T18:56:50.222Z,99305.19
2024-04-24T18:59:19.072Z,99315.31
2024-04-24T19:01:46.447Z,99294.13
2024-04-24T19:04:15.034Z,99311.59
2024-04-24T19:06:43.684Z,99318.03
2024-04-24T19:09:10.753Z,99312.22
2024-04-24T19:11:40.573Z,99324.00
2024-04-24T19:14:07.797Z,99287.88
2024-04-24T19:16:36.523Z,99300.19
2024-04-24T19:19:04.461Z,99277.44
2024-04-24T19:21:32.760Z,99318.16
2024-04-24T19:24:00.368Z,99302.00
2024-04-24T19:26:29.614Z,99296.50
2024-04-24T19:28:56.886Z,99212.16
2024-04-24T19:31:38.872Z,99199.69
2024-04-24T19:34:07.213Z,99317.97
2024-04-24T19:36:37.008Z,99292.34
2024-04-24T19:39:04.952Z,99333.16
2024-04-24T19:41:33.548Z,99375.28
2024-04-24T19:44:01.600Z,99309.53
2024-04-24T19:46:29.552Z,99284.91
2024-04-24T19:48:56.651Z,99312.19
2024-04-24T19:51:23.740Z,99291.25
2024-04-24T19:53:53.933Z,99288.84
2024-04-24T19:56:21.905Z,99301.72
2024-04-24T19:58:49.019Z,99266.97
2024-04-24T20:01:16.240Z,99301.72
2024-04-24T20:03:43.567Z,99284.50
2024-04-24T20:06:11.697Z,99273.22
2024-04-24T20:08:39.411Z,99290.09
2024-04-24T20:11:08.122Z,99361.59
2024-04-24T20:13:36.041Z,99189.19
2024-04-24T20:16:07.305Z,99290.47
2024-04-24T20:18:36.485Z,99270.31
2024-04-24T20:21:13.636Z,99285.56
2024-04-24T20:23:40.932Z,99256.66
2024-04-24T20:26:13.553Z,99271.41
2024-04-24T20:28:40.741Z,99286.16
2024-04-24T20:31:08.193Z,99481.38
2024-04-24T20:33:35.546Z,99310.88
2024-04-24T20:36:15.519Z,99178.06
2024-04-24T20:38:42.726Z,99282.63
2024-04-24T20:41:11.272Z,99272.78
2024-04-24T20:43:38.497Z,99287.72
2024-04-24T20:46:05.818Z,99304.78
2024-04-24T20:48:34.527Z,99292.13
2024-04-24T20:51:02.396Z,99302.13
2024-04-24T20:53:30.108Z,99299.13
2024-04-24T20:55:58.308Z,99288.50
2024-04-24T20:58:28.703Z,99376.16
2024-04-24T21:00:55.796Z,99293.13
2024-04-24T21:03:23.017Z,99302.16
2024-04-24T21:05:50.772Z,99295.41
2024-04-24T21:08:17.976Z,99287.69
2024-04-24T21:10:45.066Z,99312.00
2024-04-24T21:13:12.166Z,99302.50
2024-04-24T21:15:39.215Z,99296.44
2024-04-24T21:18:06.450Z,99289.78
2024-04-24T21:20:33.585Z,99273.16
2024-04-24T21:23:00.802Z,99298.19
2024-04-24T21:25:27.912Z,99246.13
2024-04-24T21:27:58.075Z,99256.66
2024-04-24T21:30:25.156Z,99267.38
2024-04-24T21:32:52.266Z,99283.88
2024-04-24T21:35:19.385Z,99247.16
2024-04-24T21:37:46.499Z,99274.50
2024-04-24T21:40:13.762Z,99165.50
2024-04-24T21:42:41.875Z,99233.19
2024-04-24T21:45:09.410Z,99225.09
2024-04-24T21:47:36.602Z,99294.53
2024-04-24T21:50:04.149Z,99244.94
2024-04-24T21:52:31.436Z,99148.34
2024-04-24T21:54:59.070Z,99226.00
2024-04-24T21:57:26.231Z,99126.56
2024-04-24T21:59:53.309Z,99212.34
2024-04-24T22:02:20.423Z,99182.22
2024-04-24T22:04:47.545Z,99176.91
2024-04-24T22:07:14.602Z,99186.19
2024-04-24T22:09:41.714Z,99196.94
2024-04-24T22:12:08.940Z,99303.75
2024-04-24T22:14:36.088Z,99206.47
2024-04-24T22:17:06.764Z,99215.50
2024-04-24T22:19:41.275Z,99234.84
2024-04-24T22:22:08.475Z,99200.84
2024-04-24T22:24:35.559Z,99215.59
2024-04-24T22:27:02.724Z,99240.31
2024-04-24T22:29:29.907Z,99300.09
2024-04-24T22:31:56.944Z,99207.50
2024-04-24T22:34:24.042Z,99303.72
2024-04-24T22:36:51.062Z,99209.91
2024-04-24T22:39:20.752Z,99178.03
2024-04-24T22:41:47.953Z,99276.97
2024-04-24T22:44:15.004Z,99187.69
2024-04-24T22:46:42.062Z,99185.38
2024-04-24T22:49:09.127Z,99210.00
2024-04-24T22:51:36.136Z,99192.75
2024-04-24T22:54:03.156Z,99235.88
2024-04-24T22:56:30.306Z,99206.69
2024-04-24T22:58:57.371Z,99191.00
2024-04-24T23:01:24.497Z,99193.09
2024-04-24T23:03:51.641Z,99196.09
2024-04-24T23:06:18.712Z,99172.97
2024-04-24T23:08:45.728Z,99164.84
2024-04-24T23:11:13.337Z,99202.63
2024-04-24T23:13:41.141Z,99117.94
2024-04-24T23:16:08.337Z,99197.38
2024-04-24T23:18:36.083Z,99174.13
2024-04-24T23:21:03.255Z,99208.09
2024-04-24T23:23:30.354Z,99202.06
2024-04-24T23:25:57.552Z,99197.59
2024-04-24T23:28:24.589Z,99195.78
2024-04-24T23:30:51.582Z,99184.97
2024-04-24T23:33:18.704Z,99195.34
2024-04-24T23:35:45.763Z,99213.25
2024-04-24T23:38:13.414Z,99218.47
2024-04-24T23:40:40.485Z,99207.34
2024-04-24T23:43:08.754Z,99195.75
2024-04-24T23:45:35.842Z,99221.47
2024-04-24T23:48:03.001Z,99112.53
2024-04-24T23:50:30.111Z,99202.22
2024-04-24T23:52:57.152Z,99177.69
2024-04-24T23:55:24.199Z,99191.03
2024-04-24T23:57:51.208Z,99187.06
